Albany, Missouri
Current Conditions -  °F | °C
As of 2:53 AM on Saturday 25 Oct 2014 (Local Time) from KLWD Reporting Station
Haze Haze  
Wind Chill: 12°   Ceiling: NA
Heat Index: 12°   Visibility: 3mi
Dew Point: 12°   Wind: 7mph
Humidity: 100%   Direction: 340°NNW
Pressure: 30"   Gusts: NA
Location:  40.25°N, 94.33°W
Report Text: KLWD 250753Z AUTO 34006KT 3SM BR 12/12 A3000 RMK AO2 SLP157 T01170117 $
Loading
Personal Weather Stations






























Interactive Weather Map New forecast layout! Learn more

10-Day Weather Forecast

Advertisements
Track Severe Weather on mobile